KECS/ECS METAR and TAF weather

Enter ICAO airport designator
Station Type Date Time Source
KECS METAR 2019/04/19 22:35 UTC NOAA

KECS 192235Z AUTO 27010G21KT 10SM CLR 22/M01 A2992 RMK AO2


Station Type Date Time Source
KECS Decoded METAR 2019/04/19 22:35 UTC NOAA

Station name not available
Apr 19, 2019 - 06:35 PM EDT / 2019.04.19 2235 UTC
Wind: from the W (270 degrees) at 12 MPH (10 KT) gusting to 24 MPH (21 KT):0
Visibility: 10 mile(s):0
Sky conditions: clear
Temperature: 71 F (22 C)
Dew Point: 30 F (-1 C)
Relative Humidity: 21%
Pressure (altimeter): 29.92 in. Hg (1013 hPa)
ob: KECS 192235Z AUTO 27010G21KT 10SM CLR 22/M01 A2992 RMK AO2
cycle: 22

Station Type Date Time Source
KECS TAF UTC NOAA

Error!

Example: see airport list